createdAt,value
2023-05-01T00:00:31.194Z,100.00
2023-05-01T00:02:58.653Z,100.00
2023-05-01T00:05:26.505Z,100.00
2023-05-01T00:07:53.861Z,100.00
2023-05-01T00:10:21.413Z,100.00
2023-05-01T00:12:48.894Z,100.00
2023-05-01T00:15:16.743Z,100.00
2023-05-01T00:17:44.166Z,100.00
2023-05-01T00:20:11.913Z,100.00
2023-05-01T00:22:39.350Z,100.00
2023-05-01T00:25:07.378Z,100.00
2023-05-01T00:27:35.069Z,100.00
2023-05-01T00:30:03.528Z,99.76
2023-05-01T00:32:30.963Z,99.45
2023-05-01T00:34:58.379Z,98.98
2023-05-01T00:37:26.008Z,93.58
2023-05-01T00:39:53.655Z,97.99
2023-05-01T00:42:21.114Z,98.65
2023-05-01T00:44:48.655Z,95.80
2023-05-01T00:47:16.136Z,94.96
2023-05-01T00:49:44.798Z,92.60
2023-05-01T00:52:12.364Z,92.84
2023-05-01T00:54:39.987Z,92.29
2023-05-01T00:57:09.727Z,94.15
2023-05-01T00:59:37.276Z,95.02
2023-05-01T01:02:04.976Z,94.85
2023-05-01T01:04:33.697Z,93.93
2023-05-01T01:07:21.552Z,96.26
2023-05-01T01:10:16.412Z,97.73
2023-05-01T01:13:09.137Z,96.71
2023-05-01T01:15:47.775Z,96.29
2023-05-01T01:18:35.411Z,96.88
2023-05-01T01:21:13.094Z,95.90
2023-05-01T01:23:43.632Z,94.15
2023-05-01T01:26:47.497Z,90.50
2023-05-01T01:29:27.090Z,86.40
2023-05-01T01:31:57.149Z,85.96
2023-05-01T01:34:35.488Z,84.59
2023-05-01T01:37:33.605Z,82.71
2023-05-01T01:40:09.351Z,87.38
2023-05-01T01:42:42.281Z,91.31
2023-05-01T01:45:19.496Z,92.72
2023-05-01T01:47:48.518Z,94.72
2023-05-01T01:50:18.633Z,97.12
2023-05-01T01:52:49.436Z,97.50
2023-05-01T01:55:21.832Z,93.71
2023-05-01T01:57:52.150Z,92.69
2023-05-01T02:00:20.877Z,93.14
2023-05-01T02:02:52.487Z,92.00
2023-05-01T02:05:21.843Z,92.53
2023-05-01T02:07:51.411Z,94.00
2023-05-01T02:10:21.137Z,91.18
2023-05-01T02:12:51.185Z,90.26
2023-05-01T02:15:21.204Z,89.74
2023-05-01T02:17:51.411Z,90.08
2023-05-01T02:20:20.133Z,90.32
2023-05-01T02:22:49.595Z,89.78
2023-05-01T02:25:17.084Z,89.52
2023-05-01T02:27:53.732Z,90.99
2023-05-01T02:30:21.819Z,90.66
2023-05-01T02:32:49.486Z,89.75
2023-05-01T02:35:17.768Z,91.86
2023-05-01T02:37:45.902Z,91.76
2023-05-01T02:40:15.271Z,92.08
2023-05-01T02:42:48.206Z,93.05
2023-05-01T02:45:22.338Z,94.24
2023-05-01T02:47:51.829Z,96.85
2023-05-01T02:50:20.653Z,98.66
2023-05-01T02:52:48.783Z,97.88
2023-05-01T02:55:36.051Z,99.16
2023-05-01T02:58:03.658Z,99.20
2023-05-01T03:00:31.237Z,98.87
2023-05-01T03:02:58.807Z,99.52
2023-05-01T03:05:26.926Z,99.29
2023-05-01T03:07:54.423Z,99.92
2023-05-01T03:10:22.384Z,100.00
2023-05-01T03:12:49.797Z,100.00
2023-05-01T03:15:18.701Z,100.00
2023-05-01T03:17:46.242Z,100.00
2023-05-01T03:20:13.817Z,100.00
2023-05-01T03:22:41.335Z,100.00
2023-05-01T03:25:09.783Z,100.00
2023-05-01T03:27:38.659Z,100.00
2023-05-01T03:30:07.329Z,100.00
2023-05-01T03:32:39.025Z,100.00
2023-05-01T03:35:10.774Z,100.00
2023-05-01T03:37:38.695Z,100.00
2023-05-01T03:40:06.971Z,100.00
2023-05-01T03:42:52.933Z,100.00
2023-05-01T03:45:24.670Z,100.00
2023-05-01T03:47:52.753Z,100.00
2023-05-01T03:50:20.731Z,100.00
2023-05-01T03:52:50.891Z,100.00
2023-05-01T03:55:18.780Z,98.88
2023-05-01T03:57:48.018Z,96.25
2023-05-01T04:00:16.914Z,90.54
2023-05-01T04:02:46.097Z,87.91
2023-05-01T04:05:19.055Z,81.41
2023-05-01T04:07:51.472Z,78.14
2023-05-01T04:10:19.185Z,76.75
2023-05-01T04:12:56.916Z,75.67
2023-05-01T04:15:24.499Z,72.78
2023-05-01T04:17:52.912Z,68.27
2023-05-01T04:20:20.706Z,67.26
2023-05-01T04:22:48.371Z,63.30
2023-05-01T04:25:16.115Z,61.47
2023-05-01T04:27:45.283Z,60.24
2023-05-01T04:30:15.517Z,60.22
2023-05-01T04:32:43.342Z,61.43
2023-05-01T04:35:12.361Z,60.74
2023-05-01T04:37:43.195Z,60.67
2023-05-01T04:40:11.858Z,59.78
2023-05-01T04:42:40.706Z,61.72
2023-05-01T04:45:11.996Z,60.04
2023-05-01T04:47:39.541Z,62.67
2023-05-01T04:50:07.304Z,62.45
2023-05-01T04:52:36.084Z,59.61
2023-05-01T04:55:05.150Z,61.94
2023-05-01T04:57:36.590Z,57.77
2023-05-01T05:00:08.132Z,57.09
2023-05-01T05:02:45.548Z,55.80
2023-05-01T05:05:15.248Z,56.40
2023-05-01T05:07:42.879Z,56.17
2023-05-01T05:10:28.748Z,56.92
2023-05-01T05:13:11.000Z,55.93
2023-05-01T05:15:39.700Z,60.72
2023-05-01T05:18:10.218Z,59.21
2023-05-01T05:20:40.748Z,59.79
2023-05-01T05:23:09.353Z,63.39
2023-05-01T05:25:36.791Z,66.65
2023-05-01T05:28:04.759Z,69.80
2023-05-01T05:30:32.275Z,70.88
2023-05-01T05:33:00.359Z,70.91
2023-05-01T05:35:28.517Z,63.83
2023-05-01T05:37:56.149Z,62.58
2023-05-01T05:40:24.536Z,60.14
2023-05-01T05:42:56.700Z,58.41
2023-05-01T05:45:26.277Z,58.52
2023-05-01T05:47:53.936Z,57.93
2023-05-01T05:50:21.629Z,59.69
2023-05-01T05:52:49.079Z,59.97
2023-05-01T05:55:16.624Z,62.28
2023-05-01T05:57:57.970Z,62.90
2023-05-01T06:00:25.585Z,66.70
2023-05-01T06:02:53.994Z,70.30
2023-05-01T06:05:23.116Z,62.12
2023-05-01T06:07:51.274Z,60.70
2023-05-01T06:10:18.997Z,57.47
2023-05-01T06:12:52.782Z,53.75
2023-05-01T06:15:32.985Z,54.82
2023-05-01T06:18:00.867Z,56.33
2023-05-01T06:20:28.411Z,57.73
2023-05-01T06:22:56.884Z,63.73
2023-05-01T06:25:33.186Z,63.21
2023-05-01T06:28:00.803Z,62.34
2023-05-01T06:30:29.416Z,67.31
2023-05-01T06:32:57.063Z,64.61
2023-05-01T06:35:24.713Z,69.15
2023-05-01T06:37:52.227Z,61.52
2023-05-01T06:40:20.074Z,57.52
2023-05-01T06:42:47.852Z,57.74
2023-05-01T06:45:15.978Z,55.95
2023-05-01T06:47:43.521Z,58.57
2023-05-01T06:50:11.348Z,55.39
2023-05-01T06:52:38.810Z,55.54
2023-05-01T06:55:08.225Z,54.89
2023-05-01T06:57:35.727Z,53.09
2023-05-01T07:00:03.828Z,50.41
2023-05-01T07:02:31.379Z,52.86
2023-05-01T07:04:59.783Z,49.55
2023-05-01T07:07:27.277Z,49.00
2023-05-01T07:09:54.941Z,47.23
2023-05-01T07:12:23.423Z,49.71
2023-05-01T07:14:50.844Z,48.84
2023-05-01T07:17:18.301Z,50.03
2023-05-01T07:19:45.789Z,46.36
2023-05-01T07:22:13.290Z,47.99
2023-05-01T07:24:40.747Z,47.66
2023-05-01T07:27:08.184Z,48.55
2023-05-01T07:29:40.784Z,49.71
2023-05-01T07:32:08.319Z,50.80
2023-05-01T07:34:35.952Z,50.52
2023-05-01T07:37:04.894Z,47.51
2023-05-01T07:39:32.346Z,44.40
2023-05-01T07:41:59.895Z,47.15
2023-05-01T07:44:27.369Z,46.67
2023-05-01T07:46:54.974Z,46.09
2023-05-01T07:49:22.677Z,44.95
2023-05-01T07:51:50.169Z,47.45
2023-05-01T07:54:22.164Z,46.89
2023-05-01T07:56:49.939Z,48.05
2023-05-01T07:59:17.331Z,43.66
2023-05-01T08:01:44.890Z,44.08
2023-05-01T08:04:12.428Z,44.63
2023-05-01T08:06:40.267Z,45.03
2023-05-01T08:09:08.126Z,44.75
2023-05-01T08:11:35.605Z,46.80
2023-05-01T08:14:03.993Z,46.11
2023-05-01T08:16:31.580Z,45.73
2023-05-01T08:18:59.677Z,44.65
2023-05-01T08:21:27.231Z,44.11
2023-05-01T08:23:56.693Z,45.48
2023-05-01T08:26:24.241Z,46.26
2023-05-01T08:28:51.739Z,45.63
2023-05-01T08:31:19.700Z,44.83
2023-05-01T08:33:47.350Z,44.70
2023-05-01T08:36:14.860Z,44.12
2023-05-01T08:38:42.558Z,44.29
2023-05-01T08:41:10.360Z,44.18
2023-05-01T08:43:38.086Z,43.46
2023-05-01T08:46:09.937Z,44.37
2023-05-01T08:48:41.203Z,43.82
2023-05-01T08:51:11.926Z,44.20
2023-05-01T08:53:41.629Z,43.65
2023-05-01T08:56:13.658Z,43.26
2023-05-01T08:58:45.420Z,45.70
2023-05-01T09:01:16.473Z,42.98
2023-05-01T09:03:46.436Z,44.42
2023-05-01T09:06:14.321Z,43.97
2023-05-01T09:08:41.754Z,43.13
2023-05-01T09:11:09.529Z,43.98
2023-05-01T09:13:36.984Z,43.76
2023-05-01T09:16:06.010Z,42.80
2023-05-01T09:18:35.002Z,43.24
2023-05-01T09:21:03.670Z,43.89
2023-05-01T09:23:31.425Z,43.38
2023-05-01T09:25:59.923Z,44.78
2023-05-01T09:29:00.587Z,42.59
2023-05-01T09:31:29.940Z,43.11
2023-05-01T09:33:59.562Z,43.88
2023-05-01T09:36:28.905Z,43.14
2023-05-01T09:38:56.683Z,46.05
2023-05-01T09:41:24.580Z,44.70
2023-05-01T09:43:57.235Z,46.19
2023-05-01T09:46:26.145Z,46.80
2023-05-01T09:49:01.735Z,45.25
2023-05-01T09:51:33.490Z,44.96
2023-05-01T09:54:03.303Z,43.87
2023-05-01T09:56:34.138Z,42.89
2023-05-01T09:59:20.149Z,45.32
2023-05-01T10:01:50.535Z,43.03
2023-05-01T10:04:29.550Z,43.30
2023-05-01T10:06:57.247Z,43.42
2023-05-01T10:09:29.448Z,44.03
2023-05-01T10:11:57.967Z,42.36
2023-05-01T10:14:27.166Z,41.92
2023-05-01T10:16:54.919Z,43.07
2023-05-01T10:19:22.654Z,43.45
2023-05-01T10:21:50.157Z,43.11
2023-05-01T10:24:18.029Z,42.67
2023-05-01T10:26:48.758Z,43.36
2023-05-01T10:29:17.858Z,42.17
2023-05-01T10:31:45.505Z,43.97
2023-05-01T10:34:18.423Z,43.25
2023-05-01T10:36:55.029Z,40.55
2023-05-01T10:39:33.526Z,42.76
2023-05-01T10:42:05.947Z,41.17
2023-05-01T10:44:35.181Z,42.17
2023-05-01T10:47:24.719Z,41.98
2023-05-01T10:50:09.792Z,41.74
2023-05-01T10:53:14.821Z,40.66
2023-05-01T10:55:46.901Z,41.45
2023-05-01T10:58:36.927Z,40.47
2023-05-01T11:01:30.384Z,42.27
2023-05-01T11:04:00.129Z,40.87
2023-05-01T11:06:27.938Z,40.92
2023-05-01T11:08:56.180Z,41.86
2023-05-01T11:11:27.057Z,42.46
2023-05-01T11:14:01.644Z,42.01
2023-05-01T11:16:38.566Z,40.18
2023-05-01T11:19:21.155Z,39.72
2023-05-01T11:21:50.637Z,41.05
2023-05-01T11:24:19.102Z,38.57
2023-05-01T11:26:48.508Z,40.97
2023-05-01T11:29:15.981Z,40.19
2023-05-01T11:31:48.624Z,39.61
2023-05-01T11:34:16.518Z,40.48
2023-05-01T11:36:51.352Z,39.68
2023-05-01T11:39:19.785Z,39.43
2023-05-01T11:41:47.843Z,39.26
2023-05-01T11:44:17.422Z,37.87
2023-05-01T11:46:45.292Z,39.09
2023-05-01T11:49:12.817Z,39.12
2023-05-01T11:51:40.432Z,38.30
2023-05-01T11:54:09.922Z,38.41
2023-05-01T11:56:38.415Z,38.51
2023-05-01T11:59:13.885Z,37.96
2023-05-01T12:01:44.028Z,38.58
2023-05-01T12:04:13.045Z,40.96
2023-05-01T12:06:46.083Z,38.57
2023-05-01T12:09:23.686Z,38.77
2023-05-01T12:11:53.118Z,39.26
2023-05-01T12:14:22.170Z,42.44
2023-05-01T12:16:50.008Z,39.78
2023-05-01T12:19:18.352Z,40.83
2023-05-01T12:21:45.933Z,40.20
2023-05-01T12:24:17.044Z,41.47
2023-05-01T12:26:46.182Z,41.96
2023-05-01T12:29:13.966Z,39.64
2023-05-01T12:31:49.515Z,39.25
2023-05-01T12:34:18.311Z,39.42
2023-05-01T12:36:55.068Z,39.34
2023-05-01T12:39:23.768Z,37.83
2023-05-01T12:41:51.615Z,38.94
2023-05-01T12:44:23.958Z,39.31
2023-05-01T12:47:08.927Z,39.26
2023-05-01T12:49:37.674Z,39.30
2023-05-01T12:52:07.943Z,39.22
2023-05-01T12:54:40.039Z,38.64
2023-05-01T12:57:15.939Z,39.88
2023-05-01T12:59:45.197Z,39.11
2023-05-01T13:02:17.821Z,39.12
2023-05-01T13:04:49.295Z,37.89
2023-05-01T13:07:19.129Z,37.46
2023-05-01T13:10:00.524Z,38.23
2023-05-01T13:12:29.002Z,36.64
2023-05-01T13:14:57.064Z,38.20
2023-05-01T13:17:27.073Z,36.42
2023-05-01T13:20:00.119Z,36.43
2023-05-01T13:22:32.564Z,38.04
2023-05-01T13:25:01.709Z,38.68
2023-05-01T13:27:29.563Z,38.55
2023-05-01T13:30:00.025Z,37.96
2023-05-01T13:32:28.484Z,38.81
2023-05-01T13:34:56.241Z,38.50
2023-05-01T13:37:23.787Z,38.10
2023-05-01T13:39:51.322Z,38.20
2023-05-01T13:42:26.382Z,38.98
2023-05-01T13:44:55.785Z,40.72
2023-05-01T13:47:28.192Z,38.10
2023-05-01T13:49:56.209Z,37.86
2023-05-01T13:52:24.563Z,38.66
2023-05-01T13:54:56.025Z,37.76
2023-05-01T13:57:25.100Z,38.88
2023-05-01T13:59:52.589Z,38.59
2023-05-01T14:02:25.351Z,39.51
2023-05-01T14:04:53.356Z,39.77
2023-05-01T14:07:23.084Z,38.37
2023-05-01T14:09:58.207Z,39.20
2023-05-01T14:12:30.684Z,38.36
2023-05-01T14:15:00.588Z,39.61
2023-05-01T14:17:38.206Z,39.06
2023-05-01T14:20:07.509Z,39.45
2023-05-01T14:22:45.741Z,39.70
2023-05-01T14:25:23.935Z,39.99
2023-05-01T14:27:52.968Z,40.08
2023-05-01T14:30:23.264Z,40.70
2023-05-01T14:32:50.774Z,40.39
2023-05-01T14:35:20.252Z,40.83
2023-05-01T14:37:47.964Z,40.23
2023-05-01T14:40:18.020Z,40.85
2023-05-01T14:42:45.695Z,41.82
2023-05-01T14:45:16.795Z,41.03
2023-05-01T14:47:49.302Z,41.74
2023-05-01T14:50:20.729Z,41.56
2023-05-01T14:52:53.315Z,41.38
2023-05-01T14:55:29.586Z,41.33
2023-05-01T14:57:57.993Z,42.30
2023-05-01T15:00:26.412Z,42.55
2023-05-01T15:02:55.610Z,41.50
2023-05-01T15:05:24.833Z,42.62
2023-05-01T15:07:54.940Z,43.26
2023-05-01T15:10:23.715Z,43.60
2023-05-01T15:12:51.492Z,43.02
2023-05-01T15:15:19.135Z,42.21
2023-05-01T15:17:47.001Z,43.01
2023-05-01T15:20:14.556Z,44.64
2023-05-01T15:22:42.068Z,45.89
2023-05-01T15:25:11.094Z,46.00
2023-05-01T15:27:38.539Z,46.02
2023-05-01T15:30:06.651Z,46.94
2023-05-01T15:32:34.303Z,47.38
2023-05-01T15:35:01.872Z,46.91
2023-05-01T15:37:31.397Z,45.81
2023-05-01T15:39:59.632Z,47.41
2023-05-01T15:42:27.232Z,47.19
2023-05-01T15:44:54.673Z,46.65
2023-05-01T15:47:22.215Z,46.35
2023-05-01T15:49:49.728Z,46.16
2023-05-01T15:52:17.172Z,47.29
2023-05-01T15:54:46.932Z,47.72
2023-05-01T15:57:17.829Z,46.78
2023-05-01T15:59:45.427Z,47.58
2023-05-01T16:02:13.045Z,47.63
2023-05-01T16:04:40.530Z,47.90
2023-05-01T16:07:09.044Z,47.59
2023-05-01T16:09:36.557Z,47.76
2023-05-01T16:12:06.837Z,48.11
2023-05-01T16:14:42.998Z,48.02
2023-05-01T16:17:10.846Z,48.74
2023-05-01T16:19:39.367Z,49.33
2023-05-01T16:22:07.416Z,49.81
2023-05-01T16:24:36.292Z,49.25
2023-05-01T16:27:03.875Z,49.99
2023-05-01T16:29:35.353Z,49.93
2023-05-01T16:32:05.942Z,49.30
2023-05-01T16:34:33.585Z,49.80
2023-05-01T16:37:01.133Z,50.20
2023-05-01T16:39:28.659Z,49.77
2023-05-01T16:41:56.264Z,49.48
2023-05-01T16:44:23.818Z,49.77
2023-05-01T16:46:56.251Z,49.48
2023-05-01T16:49:24.891Z,50.13
2023-05-01T16:51:56.784Z,50.17
2023-05-01T16:54:36.252Z,50.98
2023-05-01T16:57:03.790Z,51.52
2023-05-01T16:59:31.674Z,51.18
2023-05-01T17:01:59.180Z,51.59
2023-05-01T17:04:26.847Z,52.66
2023-05-01T17:06:56.195Z,54.77
2023-05-01T17:09:23.944Z,56.89
2023-05-01T17:11:56.988Z,60.09
2023-05-01T17:14:24.928Z,59.88
2023-05-01T17:16:53.286Z,59.34
2023-05-01T17:19:20.894Z,61.60
2023-05-01T17:21:48.387Z,62.36
2023-05-01T17:24:15.982Z,61.26
2023-05-01T17:26:43.543Z,62.78
2023-05-01T17:29:10.952Z,61.28
2023-05-01T17:31:38.509Z,61.35
2023-05-01T17:34:06.089Z,62.04
2023-05-01T17:36:33.683Z,61.96
2023-05-01T17:39:01.608Z,62.41
2023-05-01T17:41:29.150Z,62.28
2023-05-01T17:43:56.764Z,61.85
2023-05-01T17:46:24.770Z,62.69
2023-05-01T17:48:52.450Z,62.67
2023-05-01T17:51:19.995Z,62.88
2023-05-01T17:53:47.594Z,63.39
2023-05-01T17:56:15.124Z,63.60
2023-05-01T17:58:42.678Z,65.33
2023-05-01T18:01:10.248Z,66.49
2023-05-01T18:03:38.075Z,67.18
2023-05-01T18:06:06.175Z,67.65
2023-05-01T18:08:34.316Z,68.64
2023-05-01T18:11:02.745Z,68.39
2023-05-01T18:13:32.547Z,69.06
2023-05-01T18:16:00.033Z,69.67
2023-05-01T18:18:27.560Z,70.28
2023-05-01T18:20:55.301Z,70.92
2023-05-01T18:23:25.313Z,70.70
2023-05-01T18:25:54.608Z,71.91
2023-05-01T18:28:22.347Z,71.83
2023-05-01T18:30:49.853Z,72.41
2023-05-01T18:33:18.238Z,72.23
2023-05-01T18:35:45.727Z,72.71
2023-05-01T18:38:13.288Z,73.23
2023-05-01T18:40:40.844Z,73.97
2023-05-01T18:43:08.420Z,74.64
2023-05-01T18:45:35.896Z,74.97
2023-05-01T18:48:03.889Z,75.27
2023-05-01T18:50:31.447Z,74.38
2023-05-01T18:52:58.999Z,74.71
2023-05-01T18:55:26.969Z,74.22
2023-05-01T18:57:54.484Z,74.24
2023-05-01T19:00:22.041Z,74.52
2023-05-01T19:02:52.176Z,75.16
2023-05-01T19:05:20.264Z,75.72
2023-05-01T19:07:47.753Z,76.82
2023-05-01T19:10:15.261Z,77.13
2023-05-01T19:12:42.722Z,78.43
2023-05-01T19:15:10.686Z,78.68
2023-05-01T19:17:38.168Z,78.85
2023-05-01T19:20:06.456Z,80.37
2023-05-01T19:22:33.930Z,81.25
2023-05-01T19:25:01.937Z,81.55
2023-05-01T19:27:29.388Z,82.11
2023-05-01T19:30:01.425Z,83.42
2023-05-01T19:32:29.357Z,84.97
2023-05-01T19:34:57.136Z,85.86
2023-05-01T19:37:24.698Z,86.41
2023-05-01T19:39:52.127Z,86.23
2023-05-01T19:42:19.717Z,86.71
2023-05-01T19:44:47.336Z,87.66
2023-05-01T19:47:14.728Z,88.48
2023-05-01T19:49:42.214Z,90.35
2023-05-01T19:52:10.501Z,91.48
2023-05-01T19:54:37.976Z,92.98
2023-05-01T19:57:05.691Z,94.39
2023-05-01T19:59:33.276Z,95.55
2023-05-01T20:02:01.465Z,96.39
2023-05-01T20:04:29.180Z,97.92
2023-05-01T20:06:56.636Z,99.12
2023-05-01T20:09:25.562Z,100.00
2023-05-01T20:11:53.042Z,98.84
2023-05-01T20:14:20.475Z,98.30
2023-05-01T20:16:49.323Z,96.54
2023-05-01T20:19:17.906Z,96.30
2023-05-01T20:21:45.475Z,97.90
2023-05-01T20:24:12.964Z,99.27
2023-05-01T20:26:40.484Z,100.00
2023-05-01T20:29:09.422Z,100.00
2023-05-01T20:31:37.408Z,100.00
2023-05-01T20:34:05.028Z,100.00
2023-05-01T20:36:32.914Z,100.00
2023-05-01T20:39:00.353Z,100.00
2023-05-01T20:41:29.181Z,100.00
2023-05-01T20:43:56.684Z,100.00
2023-05-01T20:46:24.941Z,100.00
2023-05-01T20:48:53.584Z,100.00
2023-05-01T20:51:21.137Z,100.00
2023-05-01T20:53:48.948Z,100.00
2023-05-01T20:56:16.371Z,100.00
2023-05-01T20:58:43.852Z,100.00
2023-05-01T21:01:11.917Z,100.00
2023-05-01T21:03:40.350Z,100.00
2023-05-01T21:06:08.138Z,100.00
2023-05-01T21:08:35.649Z,100.00
2023-05-01T21:11:03.077Z,100.00
2023-05-01T21:13:31.808Z,100.00
2023-05-01T21:15:59.794Z,100.00
2023-05-01T21:18:32.613Z,100.00
2023-05-01T21:21:02.095Z,100.00
2023-05-01T21:23:29.917Z,100.00
2023-05-01T21:25:57.598Z,100.00
2023-05-01T21:28:25.137Z,100.00
2023-05-01T21:30:53.954Z,100.00
2023-05-01T21:33:21.512Z,100.00
2023-05-01T21:35:49.326Z,100.00
2023-05-01T21:38:16.737Z,100.00
2023-05-01T21:40:46.191Z,100.00
2023-05-01T21:43:13.918Z,100.00
2023-05-01T21:45:44.617Z,100.00
2023-05-01T21:48:15.662Z,100.00
2023-05-01T21:50:43.237Z,100.00
2023-05-01T21:53:10.720Z,100.00
2023-05-01T21:55:38.886Z,100.00
2023-05-01T21:58:06.301Z,100.00
2023-05-01T22:00:33.971Z,100.00
2023-05-01T22:03:07.059Z,100.00
2023-05-01T22:05:34.990Z,100.00
2023-05-01T22:08:02.420Z,100.00
2023-05-01T22:10:29.904Z,100.00
2023-05-01T22:12:57.330Z,100.00
2023-05-01T22:15:24.868Z,100.00
2023-05-01T22:17:52.340Z,100.00
2023-05-01T22:20:19.839Z,100.00
2023-05-01T22:22:47.466Z,100.00
2023-05-01T22:25:14.991Z,100.00
2023-05-01T22:27:42.408Z,100.00
2023-05-01T22:30:10.528Z,100.00
2023-05-01T22:32:38.020Z,100.00
2023-05-01T22:35:07.458Z,100.00
2023-05-01T22:37:34.904Z,100.00
2023-05-01T22:40:02.608Z,100.00
2023-05-01T22:42:30.609Z,100.00
2023-05-01T22:44:58.090Z,100.00
2023-05-01T22:47:25.525Z,100.00
2023-05-01T22:49:53.050Z,100.00
2023-05-01T22:52:20.530Z,100.00
2023-05-01T22:54:48.010Z,100.00
2023-05-01T22:57:16.077Z,100.00
2023-05-01T22:59:45.715Z,100.00
2023-05-01T23:02:16.450Z,100.00
2023-05-01T23:04:44.154Z,100.00
2023-05-01T23:07:14.086Z,100.00
2023-05-01T23:09:41.731Z,100.00
2023-05-01T23:12:16.816Z,100.00
2023-05-01T23:14:46.429Z,100.00
2023-05-01T23:17:14.987Z,100.00
2023-05-01T23:19:43.612Z,100.00
2023-05-01T23:22:13.184Z,100.00
2023-05-01T23:24:44.454Z,100.00
2023-05-01T23:27:12.578Z,100.00
2023-05-01T23:29:40.983Z,100.00
2023-05-01T23:32:22.223Z,100.00
2023-05-01T23:34:49.729Z,100.00
2023-05-01T23:37:17.132Z,100.00
2023-05-01T23:39:46.013Z,100.00
2023-05-01T23:42:13.804Z,100.00
2023-05-01T23:44:41.308Z,100.00
2023-05-01T23:47:09.435Z,100.00
2023-05-01T23:49:37.269Z,100.00
2023-05-01T23:52:06.977Z,100.00
2023-05-01T23:54:34.571Z,100.00
2023-05-01T23:57:02.652Z,100.00
2023-05-01T23:59:30.232Z,100.00
